Aeroporto :
LOGIN :

Iscrizione | Disclaimer

   EN    FR    IT 

 










Sommario :    VFR   VFR Marginale   IFR   IFR Intensivo   IFR Molto Intensivo
Visibilità : 
Base nubi : 
>= 8 km
>= 3000ft
5 / 8 km
1000 / 3000 ft
1500m / 5 km
500 / 1000 ft
800 / 1500m
200 / 500 ft
< 800m
< 200 ft
Simboli :   Temporali  Nebbia  Neve Forte  Precipitazioni Forti  Vento > 20 kt
SIGMETs :   Varie  Temporali  Ghiacco  Turbolenza  Onda orograficha  Ceneri Vulcaniche






- Altitudine del aeroporto : 299 ft
- Codice IATA : EDM


LFRI - La Roche Sur Yon - Les Ajoncs

ULTIMO METAR :
  • 032100Z AUTO 32007KT CAVOK 16/13 Q1022 NOSIG

METARs OBSOLETI :
  • 032030Z AUTO 31007KT 7000 2500 NSC 17/13 Q1022 NOSIG
  • 032000Z AUTO 31009KT CAVOK 18/13 Q1021 NOSIG
  • 031930Z AUTO 31008KT 280V340 CAVOK 20/13 Q1021 NOSIG
  • 031900Z AUTO 32010KT CAVOK 21/13 Q1021 NOSIG
  • 031830Z AUTO 32010KT 290V350 CAVOK 23/13 Q1021 NOSIG
  • 030500Z AUTO 02002KT CAVOK 12/12 Q1022
  • 031800Z AUTO 36006KT 330V050 CAVOK 24/11 Q1020 NOSIG

TAF TAF LFRI
Valido dal 03 a 18 ore il 04 a 18 ore UTC


031700Z 0318/0418 36008KT CAVOK



MetMap, La meteo Aeronautica in un colpo d'occhio ! - Copyright ORBIFLY Dicembre 2007 - Disclaimer

ORBIFLY MET'MAP TEAM :

Programmazione e sviluppo : Alexandra Zaïnal
Concezione : Baudouin d'Aumeries
Supporto tecnico e logistico : Manuel Goepfert
Aiuto : Marc-Olivier Méhu
Aiuto per la traduzione : Arnaldo La Scala




FONTI E CREDITI :

   NOAA